Time;durP1;ratioP1;P1;durP2;ratioP2;P2;SDS_P1;SDS_P2;PMS_P1;PMS_P2;Temp;Humidity;BMP_temperature;BMP_pressure;BME280_temperature;BME280_humidity;BME280_pressure;Samples;Min_cycle;Max_cycle;Signal;HPM_P1;HPM_P2
2022/07/06 00:00:07;;;;;;;0.93;0.85;;;16.80;52.50;;;;;;606746;234;27278;-63
2022/07/06 00:02:34;;;;;;;1.17;1.08;;;16.80;52.70;;;;;;603707;238;26642;-63
2022/07/06 00:05:02;;;;;;;1.20;0.82;;;16.70;53.00;;;;;;604605;236;26589;-63
2022/07/06 00:07:30;;;;;;;0.60;0.60;;;16.70;53.00;;;;;;606221;231;26563;-63
2022/07/06 00:09:58;;;;;;;1.02;0.75;;;16.60;53.00;;;;;;601874;232;26622;-63
2022/07/06 00:12:24;;;;;;;1.37;0.88;;;16.60;53.20;;;;;;604463;238;26583;-63
2022/07/06 00:14:52;;;;;;;1.35;0.90;;;16.60;53.50;;;;;;604897;237;26780;-63
2022/07/06 00:17:19;;;;;;;0.93;0.60;;;16.50;53.60;;;;;;604874;237;26601;-63
2022/07/06 00:19:47;;;;;;;0.85;0.82;;;16.40;54.10;;;;;;604878;238;26607;-63
2022/07/06 00:22:15;;;;;;;1.40;1.05;;;16.40;54.20;;;;;;604909;238;26587;-63
2022/07/06 00:24:43;;;;;;;0.80;0.80;;;16.40;54.50;;;;;;604285;236;26576;-63
2022/07/06 00:27:11;;;;;;;0.82;0.82;;;16.40;54.70;;;;;;604757;238;26582;-63
2022/07/06 00:29:43;;;;;;;0.62;0.62;;;16.30;54.70;;;;;;604432;237;26629;-63
2022/07/06 00:32:06;;;;;;;0.82;0.73;;;16.30;55.00;;;;;;606744;232;26590;-63
2022/07/06 00:34:35;;;;;;;3.17;1.17;;;16.40;55.00;;;;;;602066;236;26633;-61
2022/07/06 00:37:01;;;;;;;3.25;1.50;;;16.30;55.10;;;;;;602836;236;26959;-61
2022/07/06 00:39:29;;;;;;;1.48;1.00;;;16.40;55.20;;;;;;601808;236;26654;-61
2022/07/06 00:41:57;;;;;;;2.60;0.90;;;16.30;55.30;;;;;;601579;237;26668;-61
2022/07/06 00:44:25;;;;;;;1.58;0.93;;;16.30;55.30;;;;;;605060;235;26615;-61
2022/07/06 00:46:52;;;;;;;2.65;0.93;;;16.20;55.40;;;;;;607484;235;26612;-62
2022/07/06 00:51:52;;;;;;;0.75;0.70;;;16.20;55.70;;;;;;609807;236;26847;-62
2022/07/06 00:54:19;;;;;;;2.08;1.10;;;16.20;55.70;;;;;;605980;236;26650;-62
2022/07/06 00:56:46;;;;;;;1.92;0.88;;;16.20;55.70;;;;;;604594;238;26828;-62
2022/07/06 00:59:14;;;;;;;2.33;0.80;;;16.20;55.90;;;;;;604582;238;26622;-62
2022/07/06 01:01:41;;;;;;;1.23;1.00;;;16.20;56.00;;;;;;610623;235;26962;-62
2022/07/06 01:04:09;;;;;;;1.80;1.00;;;16.30;56.10;;;;;;605072;235;26649;-62
2022/07/06 01:06:37;;;;;;;1.65;0.82;;;16.20;56.00;;;;;;603991;235;26591;-62
2022/07/06 01:09:05;;;;;;;1.05;0.80;;;16.20;56.10;;;;;;605262;237;26575;-62
2022/07/06 01:11:33;;;;;;;1.48;0.82;;;16.20;56.10;;;;;;604382;236;26643;-62
2022/07/06 01:14:01;;;;;;;2.08;0.80;;;16.20;56.40;;;;;;602742;236;26848;-62
2022/07/06 01:16:28;;;;;;;0.93;0.82;;;16.10;56.20;;;;;;602061;239;26941;-62
2022/07/06 01:18:55;;;;;;;0.68;0.68;;;16.10;56.40;;;;;;604848;237;26613;-62
2022/07/06 01:21:22;;;;;;;0.62;0.62;;;16.20;56.40;;;;;;605741;236;27257;-62
2022/07/06 01:23:49;;;;;;;1.12;1.00;;;16.20;56.40;;;;;;604068;237;26581;-62
2022/07/06 01:26:18;;;;;;;2.03;0.98;;;16.20;56.40;;;;;;604559;236;26591;-62
2022/07/06 01:28:44;;;;;;;0.68;0.68;;;16.20;56.40;;;;;;604670;238;26582;-62
2022/07/06 01:31:18;;;;;;;0.95;0.90;;;16.10;56.90;;;;;;608891;235;26882;-62
2022/07/06 01:33:45;;;;;;;1.08;0.95;;;16.10;56.50;;;;;;606763;235;26871;-61
2022/07/06 01:36:12;;;;;;;0.98;0.73;;;16.10;56.60;;;;;;604688;235;26881;-61
2022/07/06 01:38:46;;;;;;;1.20;0.70;;;16.20;57.10;;;;;;608463;231;26607;-61
2022/07/06 01:41:13;;;;;;;3.17;0.95;;;16.20;56.70;;;;;;604480;235;26608;-61
2022/07/06 01:43:41;;;;;;;1.42;0.70;;;16.20;56.70;;;;;;602885;237;26596;-61
2022/07/06 01:46:08;;;;;;;1.62;0.90;;;16.20;56.80;;;;;;602770;236;26977;-61
2022/07/06 01:48:35;;;;;;;0.95;0.95;;;16.20;56.80;;;;;;603006;233;26638;-61
2022/07/06 01:51:02;;;;;;;0.93;0.70;;;16.30;56.80;;;;;;608114;235;26858;-61
2022/07/06 01:53:29;;;;;;;0.80;0.80;;;16.30;56.80;;;;;;607980;235;26635;-61
2022/07/06 01:55:57;;;;;;;0.80;0.80;;;16.40;56.40;;;;;;604604;237;26813;-61
2022/07/06 01:58:25;;;;;;;2.30;0.70;;;16.40;56.40;;;;;;606641;235;26834;-62
2022/07/06 02:00:52;;;;;;;0.98;0.88;;;16.40;56.20;;;;;;607992;235;26661;-62
2022/07/06 02:03:19;;;;;;;0.70;0.70;;;16.50;56.20;;;;;;609724;236;27111;-62
2022/07/06 02:05:46;;;;;;;0.90;0.90;;;16.40;56.20;;;;;;608717;235;26561;-61
2022/07/06 02:08:13;;;;;;;1.08;0.85;;;16.50;56.10;;;;;;603112;235;26880;-61
2022/07/06 02:10:41;;;;;;;0.95;0.80;;;16.60;56.10;;;;;;609687;235;26626;-61
2022/07/06 02:13:09;;;;;;;0.75;0.70;;;16.60;55.70;;;;;;607906;235;26827;-62
2022/07/06 02:15:36;;;;;;;1.10;1.00;;;16.60;55.60;;;;;;603698;235;26657;-62
2022/07/06 02:18:03;;;;;;;0.80;0.70;;;16.70;55.80;;;;;;603784;235;26675;-62
2022/07/06 02:20:31;;;;;;;1.37;0.80;;;16.70;55.40;;;;;;613122;234;26614;-62
2022/07/06 02:22:58;;;;;;;2.87;1.10;;;16.70;57.00;;;;;;606127;234;27247;-61
2022/07/06 02:25:25;;;;;;;1.27;0.90;;;16.60;58.40;;;;;;605152;237;26623;-62
2022/07/06 02:27:52;;;;;;;2.97;1.00;;;16.30;59.70;;;;;;605652;235;26846;-62
2022/07/06 02:30:20;;;;;;;1.02;0.90;;;16.20;61.60;;;;;;611318;234;26669;-61
2022/07/06 02:32:47;;;;;;;1.15;0.62;;;16.00;65.20;;;;;;605297;236;26823;-62
2022/07/06 02:35:14;;;;;;;1.70;0.90;;;15.70;68.00;;;;;;608147;235;26642;-62
2022/07/06 02:37:41;;;;;;;2.25;0.80;;;15.60;71.50;;;;;;601738;237;26836;-62
2022/07/06 02:40:10;;;;;;;0.90;0.90;;;15.50;75.70;;;;;;602625;235;26678;-62
2022/07/06 02:42:37;;;;;;;1.37;1.17;;;15.30;79.70;;;;;;601826;237;26870;-62
2022/07/06 02:45:05;;;;;;;1.67;0.88;;;15.20;82.30;;;;;;604388;236;26590;-62
2022/07/06 02:47:33;;;;;;;1.52;1.02;;;15.20;83.60;;;;;;603871;236;26582;-62
2022/07/06 02:50:02;;;;;;;0.62;0.62;;;15.30;87.40;;;;;;601887;238;26613;-62
2022/07/06 02:52:30;;;;;;;1.15;0.85;;;15.30;87.30;;;;;;603203;233;26609;-61
2022/07/06 02:54:57;;;;;;;1.10;1.00;;;15.30;88.80;;;;;;602041;236;26888;-62
2022/07/06 02:57:24;;;;;;;2.50;0.88;;;15.30;88.70;;;;;;607661;236;26543;-62
2022/07/06 02:59:52;;;;;;;1.08;0.80;;;15.40;90.60;;;;;;603158;236;27442;-62
2022/07/06 03:02:19;;;;;;;1.83;1.12;;;15.40;90.70;;;;;;602787;233;26879;-61
2022/07/06 03:04:46;;;;;;;1.05;0.98;;;15.30;91.10;;;;;;607226;232;26623;-61
2022/07/06 03:07:14;;;;;;;1.17;1.00;;;15.20;91.20;;;;;;609035;236;26918;-62
2022/07/06 03:09:41;;;;;;;3.15;0.88;;;15.10;91.70;;;;;;610829;235;26654;-62
2022/07/06 03:12:09;;;;;;;1.75;1.02;;;15.10;92.90;;;;;;604592;237;26590;-62
2022/07/06 03:14:36;;;;;;;1.85;0.88;;;15.20;94.70;;;;;;604617;237;26589;-61
2022/07/06 03:17:03;;;;;;;0.80;0.80;;;15.20;93.70;;;;;;603569;232;26827;-62
2022/07/06 03:19:31;;;;;;;2.08;1.00;;;15.20;94.60;;;;;;602449;238;27019;-62
2022/07/06 03:21:58;;;;;;;1.80;0.98;;;15.30;94.10;;;;;;607903;236;26649;-61
2022/07/06 03:24:25;;;;;;;2.45;0.98;;;15.30;93.10;;;;;;608109;235;26916;-62
2022/07/06 03:26:52;;;;;;;1.05;0.85;;;15.40;93.40;;;;;;607896;233;26565;-61
2022/07/06 03:29:20;;;;;;;2.30;1.00;;;15.40;92.90;;;;;;603296;235;27278;-62
2022/07/06 03:31:47;;;;;;;0.75;0.70;;;15.30;93.10;;;;;;610714;235;26817;-62
2022/07/06 03:34:15;;;;;;;2.10;0.88;;;15.10;93.10;;;;;;605552;235;26839;-61
2022/07/06 03:36:42;;;;;;;1.98;1.08;;;15.10;93.00;;;;;;604594;236;26863;-61
2022/07/06 03:39:09;;;;;;;0.80;0.75;;;15.10;93.10;;;;;;606501;236;26586;-62
2022/07/06 03:41:36;;;;;;;2.28;0.88;;;15.00;93.20;;;;;;602144;236;26597;-61
2022/07/06 03:44:04;;;;;;;1.05;0.80;;;15.00;93.20;;;;;;602733;236;27132;-61
2022/07/06 03:46:31;;;;;;;0.98;0.90;;;15.00;93.10;;;;;;610147;236;26650;-62
2022/07/06 03:48:58;;;;;;;1.15;0.90;;;15.00;93.60;;;;;;607389;236;26822;-61
2022/07/06 03:51:25;;;;;;;1.05;0.90;;;15.00;93.00;;;;;;603328;238;26604;-62
2022/07/06 03:53:53;;;;;;;1.08;0.93;;;15.00;93.70;;;;;;602078;235;26835;-61
2022/07/06 03:58:53;;;;;;;0.73;0.60;;;15.30;92.00;;;;;;607328;236;26841;-62
2022/07/06 04:01:21;;;;;;;0.77;0.77;;;15.30;92.00;;;;;;606493;235;26847;-62
2022/07/06 04:03:49;;;;;;;0.95;0.77;;;15.40;91.80;;;;;;604664;236;26610;-62
2022/07/06 04:06:16;;;;;;;1.27;0.88;;;15.40;91.80;;;;;;607438;234;26814;-65
2022/07/06 04:08:43;;;;;;;0.88;0.80;;;15.40;91.20;;;;;;603360;236;26588;-64
2022/07/06 04:11:10;;;;;;;0.98;0.70;;;15.40;90.40;;;;;;606280;236;26900;-64
2022/07/06 04:13:38;;;;;;;0.77;0.77;;;15.40;90.60;;;;;;601612;236;26649;-63
2022/07/06 04:16:05;;;;;;;0.80;0.80;;;15.40;90.90;;;;;;601482;239;27026;-64
2022/07/06 04:18:32;;;;;;;0.80;0.80;;;15.60;89.20;;;;;;601906;238;26603;-64
2022/07/06 04:20:59;;;;;;;1.00;0.90;;;15.60;86.70;;;;;;604497;237;26836;-64
2022/07/06 04:23:27;;;;;;;0.85;0.85;;;15.80;86.60;;;;;;607700;236;26690;-65
2022/07/06 04:25:54;;;;;;;1.23;0.70;;;15.80;86.70;;;;;;605675;235;26812;-64
2022/07/06 04:28:21;;;;;;;1.55;0.80;;;15.80;85.40;;;;;;602432;236;26632;-64
2022/07/06 04:30:48;;;;;;;0.70;0.70;;;15.80;84.90;;;;;;602431;238;27023;-63
2022/07/06 04:33:16;;;;;;;1.62;0.77;;;15.60;84.50;;;;;;608826;235;26632;-64
2022/07/06 04:35:43;;;;;;;0.60;0.60;;;15.50;84.80;;;;;;603738;235;26641;-64
2022/07/06 04:38:11;;;;;;;1.30;0.80;;;15.30;86.00;;;;;;604249;232;26624;-64
2022/07/06 04:40:39;;;;;;;0.80;0.80;;;15.30;85.50;;;;;;607955;235;26602;-64
2022/07/06 04:43:07;;;;;;;0.73;0.70;;;15.30;84.70;;;;;;603071;235;26578;-65
2022/07/06 04:45:35;;;;;;;1.25;0.80;;;15.50;86.30;;;;;;607090;235;26652;-65
2022/07/06 04:48:02;;;;;;;0.90;0.75;;;15.50;85.90;;;;;;609304;235;26585;-65
2022/07/06 04:50:29;;;;;;;1.95;0.93;;;15.60;83.50;;;;;;604738;236;26593;-65
2022/07/06 04:52:56;;;;;;;1.15;0.80;;;15.60;83.20;;;;;;609622;235;26838;-64
2022/07/06 04:55:23;;;;;;;1.73;0.85;;;15.70;83.50;;;;;;608779;235;26660;-64
2022/07/06 04:57:52;;;;;;;1.23;0.80;;;15.60;83.00;;;;;;608896;235;26823;-65
2022/07/06 05:00:19;;;;;;;0.93;0.70;;;15.70;83.30;;;;;;603071;238;26615;-64
2022/07/06 05:02:47;;;;;;;1.87;1.00;;;15.70;83.10;;;;;;611511;235;26590;-64
2022/07/06 05:05:14;;;;;;;0.65;0.65;;;15.70;83.00;;;;;;602358;236;26830;-64
2022/07/06 05:07:41;;;;;;;1.98;0.88;;;15.60;82.50;;;;;;602321;236;26582;-64
2022/07/06 05:10:09;;;;;;;1.35;0.70;;;15.70;82.40;;;;;;604778;236;27278;-65
2022/07/06 05:12:36;;;;;;;1.58;0.80;;;15.70;82.30;;;;;;607748;236;26635;-64
2022/07/06 05:15:04;;;;;;;1.70;0.85;;;15.70;82.10;;;;;;610005;235;26577;-64
2022/07/06 05:17:31;;;;;;;1.37;0.90;;;15.80;81.70;;;;;;612407;234;26676;-64
2022/07/06 05:19:58;;;;;;;1.27;0.77;;;15.90;81.10;;;;;;612391;235;26910;-65
2022/07/06 05:22:26;;;;;;;1.52;0.90;;;15.90;80.70;;;;;;612342;235;26621;-64
2022/07/06 05:24:53;;;;;;;1.55;0.80;;;15.90;79.70;;;;;;612406;234;27233;-64
2022/07/06 05:27:20;;;;;;;0.77;0.77;;;16.00;78.50;;;;;;612389;235;26645;-64
2022/07/06 05:29:47;;;;;;;1.15;0.80;;;16.00;77.90;;;;;;604530;235;27349;-64
2022/07/06 05:32:14;;;;;;;0.93;0.82;;;16.00;77.60;;;;;;601602;236;26654;-64
2022/07/06 05:34:42;;;;;;;0.77;0.77;;;16.10;76.90;;;;;;610206;235;26605;-64
2022/07/06 05:37:10;;;;;;;1.65;0.90;;;16.20;76.20;;;;;;608466;236;26579;-64
2022/07/06 05:39:38;;;;;;;2.25;1.00;;;16.30;76.20;;;;;;602599;236;26581;-64
2022/07/06 05:42:05;;;;;;;1.50;0.80;;;16.40;76.50;;;;;;604895;235;26641;-65
2022/07/06 05:44:33;;;;;;;1.95;0.90;;;16.40;76.50;;;;;;602673;236;26661;-65
2022/07/06 05:52:16;;;;;;;1.87;1.05;;;16.80;71.90;;;;;;607659;234;26680;-64
2022/07/06 05:54:43;;;;;;;0.95;0.73;;;16.70;71.60;;;;;;602479;237;26586;-64
2022/07/06 05:57:10;;;;;;;1.45;0.85;;;16.70;72.40;;;;;;602406;237;26588;-64
2022/07/06 05:59:38;;;;;;;0.75;0.75;;;16.80;71.90;;;;;;607310;235;26893;-65
2022/07/06 06:02:05;;;;;;;1.75;0.90;;;16.90;71.40;;;;;;604883;236;27036;-65
2022/07/06 06:04:32;;;;;;;2.03;0.80;;;16.90;70.80;;;;;;605084;236;26656;-64
2022/07/06 06:06:59;;;;;;;0.70;0.70;;;17.10;71.00;;;;;;603810;236;26942;-64
2022/07/06 06:09:26;;;;;;;1.55;1.10;;;17.20;70.40;;;;;;607606;236;26626;-65
2022/07/06 06:11:54;;;;;;;0.82;0.70;;;17.30;69.10;;;;;;609768;235;26861;-65
2022/07/06 06:14:21;;;;;;;1.90;1.05;;;17.20;68.80;;;;;;604829;237;26596;-63
2022/07/06 06:16:49;;;;;;;2.05;0.90;;;17.20;68.70;;;;;;605583;235;26602;-64
2022/07/06 06:19:16;;;;;;;1.00;0.60;;;17.40;69.00;;;;;;607075;235;26883;-64
2022/07/06 06:21:44;;;;;;;1.12;0.77;;;17.10;69.40;;;;;;604845;237;26587;-65
2022/07/06 06:24:13;;;;;;;2.47;0.73;;;17.10;69.40;;;;;;602854;236;26632;-65
2022/07/06 06:26:40;;;;;;;0.93;0.77;;;17.30;68.30;;;;;;601580;237;26663;-65
2022/07/06 06:29:07;;;;;;;1.45;0.85;;;17.40;68.20;;;;;;601716;236;26605;-65
2022/07/06 06:31:34;;;;;;;1.58;0.80;;;17.40;68.00;;;;;;604991;235;26879;-65
2022/07/06 06:34:02;;;;;;;1.42;0.90;;;17.30;67.50;;;;;;606886;235;26658;-65
2022/07/06 06:36:29;;;;;;;2.25;0.85;;;17.50;67.60;;;;;;601523;239;26879;-64
2022/07/06 06:38:56;;;;;;;2.83;0.93;;;17.50;66.50;;;;;;604286;235;26685;-64
2022/07/06 06:41:23;;;;;;;1.35;0.93;;;17.50;66.60;;;;;;601530;238;26876;-64
2022/07/06 06:43:51;;;;;;;1.95;0.82;;;17.60;66.50;;;;;;602858;236;26618;-64
2022/07/06 06:46:19;;;;;;;1.00;0.85;;;17.70;65.30;;;;;;604191;235;26629;-64
2022/07/06 06:48:47;;;;;;;0.80;0.70;;;17.70;65.40;;;;;;602409;232;26643;-65
2022/07/06 06:51:15;;;;;;;4.12;1.08;;;17.80;65.30;;;;;;606771;230;26670;-65
2022/07/06 06:53:43;;;;;;;2.15;1.00;;;18.10;64.40;;;;;;601596;236;26601;-65
2022/07/06 06:56:10;;;;;;;1.60;1.20;;;18.00;64.20;;;;;;604216;232;26808;-65
2022/07/06 06:58:37;;;;;;;1.67;1.00;;;18.10;63.50;;;;;;604327;236;26632;-64
2022/07/06 07:01:05;;;;;;;2.42;1.00;;;18.00;62.60;;;;;;608109;233;26964;-65
2022/07/06 07:03:32;;;;;;;1.62;0.88;;;17.80;63.30;;;;;;604565;235;26634;-72
2022/07/06 07:06:00;;;;;;;2.35;0.98;;;18.20;62.30;;;;;;604712;235;26808;-72
2022/07/06 07:08:28;;;;;;;1.70;1.00;;;18.20;62.30;;;;;;604505;234;26897;-70
2022/07/06 07:10:55;;;;;;;1.80;1.10;;;18.70;61.10;;;;;;602888;237;26604;-68
2022/07/06 07:13:23;;;;;;;2.78;1.10;;;19.20;59.50;;;;;;604629;236;26886;-69
2022/07/06 07:15:50;;;;;;;3.65;0.90;;;19.20;59.50;;;;;;604691;236;26878;-68
2022/07/06 07:18:17;;;;;;;1.10;0.80;;;19.20;59.10;;;;;;610364;235;26648;-68
2022/07/06 07:20:44;;;;;;;2.25;0.93;;;19.10;59.10;;;;;;604919;234;27196;-68
2022/07/06 07:23:12;;;;;;;1.73;0.93;;;18.70;58.50;;;;;;610560;234;26667;-68
2022/07/06 07:25:39;;;;;;;2.42;1.12;;;18.60;59.10;;;;;;610198;231;26891;-68
2022/07/06 07:28:07;;;;;;;0.85;0.70;;;18.40;57.40;;;;;;611927;235;26575;-69
2022/07/06 07:30:35;;;;;;;1.55;0.88;;;18.20;56.40;;;;;;612708;235;26588;-69
2022/07/06 07:33:03;;;;;;;1.67;0.80;;;18.20;56.30;;;;;;604342;235;26581;-69
2022/07/06 07:35:31;;;;;;;1.00;0.75;;;18.20;56.30;;;;;;605745;236;26567;-69
2022/07/06 07:37:58;;;;;;;0.82;0.82;;;18.60;55.50;;;;;;605509;235;26840;-69
2022/07/06 07:40:25;;;;;;;3.20;0.90;;;18.70;55.20;;;;;;601814;236;26655;-70
2022/07/06 07:42:53;;;;;;;1.37;0.73;;;18.60;54.80;;;;;;604316;235;26820;-69
2022/07/06 07:45:21;;;;;;;1.02;0.82;;;19.60;53.00;;;;;;609392;234;26637;-70
2022/07/06 07:47:48;;;;;;;1.98;0.90;;;19.60;53.00;;;;;;605849;235;26668;-69
2022/07/06 07:50:15;;;;;;;2.45;0.95;;;19.30;51.70;;;;;;603791;236;26687;-69
2022/07/06 07:52:43;;;;;;;1.00;0.73;;;19.50;51.90;;;;;;607059;235;26640;-69
2022/07/06 07:55:11;;;;;;;2.15;0.95;;;19.60;51.90;;;;;;604285;235;27130;-69
2022/07/06 07:57:39;;;;;;;1.92;0.88;;;19.90;51.60;;;;;;605195;235;26644;-69
2022/07/06 08:00:07;;;;;;;1.00;0.90;;;20.10;50.90;;;;;;605096;235;26878;-68
2022/07/06 08:02:34;;;;;;;1.00;0.77;;;19.80;51.50;;;;;;605240;235;26654;-69
2022/07/06 08:05:01;;;;;;;1.70;0.70;;;19.90;51.70;;;;;;602784;238;26885;-69
2022/07/06 08:07:29;;;;;;;0.82;0.82;;;19.70;51.70;;;;;;604595;237;26611;-69
2022/07/06 08:09:57;;;;;;;0.98;0.80;;;19.40;50.20;;;;;;603613;235;26605;-69
2022/07/06 08:12:26;;;;;;;1.75;0.93;;;19.30;51.10;;;;;;607318;234;26639;-69
2022/07/06 08:14:53;;;;;;;1.30;0.80;;;19.60;50.20;;;;;;607535;234;26625;-69
2022/07/06 08:17:21;;;;;;;1.37;0.60;;;20.00;50.40;;;;;;606476;234;26585;-69
2022/07/06 08:19:48;;;;;;;2.35;0.80;;;20.00;50.40;;;;;;604473;235;26605;-70
2022/07/06 08:22:15;;;;;;;72.97;11.65;;;19.80;50.80;;;;;;608559;236;26597;-69
2022/07/06 08:24:43;;;;;;;93.95;17.55;;;19.90;51.20;;;;;;610443;235;26580;-69
2022/07/06 08:27:11;;;;;;;161.37;29.80;;;19.70;51.50;;;;;;606353;236;26596;-69
2022/07/06 08:29:39;;;;;;;145.65;28.02;;;19.20;52.30;;;;;;602680;236;26638;-69
2022/07/06 08:32:07;;;;;;;136.00;25.05;;;19.30;52.40;;;;;;604305;231;26562;-66
2022/07/06 08:34:35;;;;;;;119.37;23.02;;;19.30;52.50;;;;;;606109;235;26805;-65
2022/07/06 08:37:03;;;;;;;116.78;24.35;;;19.90;51.80;;;;;;609429;234;26585;-67
2022/07/06 08:39:31;;;;;;;115.25;23.23;;;19.90;51.70;;;;;;606237;235;26556;-67
2022/07/06 08:41:58;;;;;;;93.85;20.50;;;20.10;50.90;;;;;;610087;236;26875;-68
2022/07/06 08:44:26;;;;;;;97.35;19.58;;;20.10;50.70;;;;;;611851;235;26547;-67
2022/07/06 08:46:52;;;;;;;71.95;16.87;;;20.00;50.00;;;;;;603528;236;26574;-69
2022/07/06 08:49:20;;;;;;;81.47;17.40;;;19.90;50.10;;;;;;603203;236;26595;-68
2022/07/06 08:51:47;;;;;;;79.62;15.85;;;19.90;49.00;;;;;;603642;235;27058;-68
2022/07/06 08:54:14;;;;;;;62.28;15.00;;;19.70;48.60;;;;;;604100;233;26604;-68
2022/07/06 08:56:42;;;;;;;72.78;15.57;;;19.60;48.50;;;;;;608364;235;26969;-68
2022/07/06 08:59:10;;;;;;;54.30;13.55;;;19.70;48.60;;;;;;603486;235;26642;-66
2022/07/06 09:01:37;;;;;;;45.72;11.63;;;20.10;47.50;;;;;;608039;234;26854;-69
2022/07/06 09:04:04;;;;;;;45.90;12.18;;;20.00;47.40;;;;;;610898;235;26876;-69
2022/07/06 09:06:32;;;;;;;33.80;10.45;;;20.10;45.70;;;;;;604320;234;26593;-69
2022/07/06 09:08:59;;;;;;;33.03;9.10;;;20.10;45.70;;;;;;601491;237;26650;-70
2022/07/06 09:11:26;;;;;;;12.68;3.97;;;19.90;45.30;;;;;;602030;232;26863;-68
2022/07/06 09:13:54;;;;;;;7.25;3.35;;;20.10;45.20;;;;;;607480;236;26731;-69
2022/07/06 09:16:25;;;;;;;11.40;3.45;;;20.20;45.20;;;;;;603312;235;26651;-68
2022/07/06 09:18:52;;;;;;;5.55;2.20;;;20.10;45.20;;;;;;605569;234;26626;-68
2022/07/06 09:21:24;;;;;;;5.62;1.83;;;20.20;45.00;;;;;;608333;236;26637;-70
2022/07/06 09:23:54;;;;;;;5.45;1.70;;;20.30;45.20;;;;;;610601;233;26898;-70
2022/07/06 09:26:21;;;;;;;5.87;1.27;;;20.70;44.90;;;;;;605054;234;26604;-70
2022/07/06 09:28:49;;;;;;;3.58;1.20;;;20.90;42.90;;;;;;603579;235;26563;-70
2022/07/06 09:31:16;;;;;;;7.40;1.27;;;21.00;42.70;;;;;;608550;235;26886;-69
2022/07/06 09:33:55;;;;;;;2.95;1.30;;;20.70;42.70;;;;;;607309;235;26598;-70
2022/07/06 09:36:42;;;;;;;1.90;1.10;;;20.50;42.80;;;;;;605518;237;26621;-70
2022/07/06 09:39:30;;;;;;;4.18;1.00;;;20.20;43.30;;;;;;605530;232;26606;-70
2022/07/06 09:41:57;;;;;;;3.97;1.25;;;19.90;43.60;;;;;;605389;238;26619;-70
2022/07/06 09:44:26;;;;;;;3.60;1.10;;;19.70;42.90;;;;;;605158;237;26585;-70
2022/07/06 09:46:56;;;;;;;5.90;1.30;;;19.70;42.90;;;;;;604899;237;26587;-70
2022/07/06 09:49:23;;;;;;;1.35;0.90;;;19.70;42.90;;;;;;604858;237;27256;-70
2022/07/06 09:51:51;;;;;;;1.62;0.90;;;20.10;43.00;;;;;;604900;237;26589;-70
2022/07/06 09:54:18;;;;;;;3.45;1.30;;;20.50;42.80;;;;;;604823;237;26580;-70
2022/07/06 09:56:50;;;;;;;4.78;1.23;;;20.40;43.50;;;;;;604885;237;26578;-68
2022/07/06 09:59:14;;;;;;;1.75;1.00;;;20.20;44.70;;;;;;604257;234;26575;-71
2022/07/06 10:01:41;;;;;;;7.43;1.42;;;20.20;44.50;;;;;;605999;235;26636;-71
2022/07/06 10:04:09;;;;;;;1.62;1.10;;;20.20;44.30;;;;;;604044;237;26582;-71
2022/07/06 10:06:36;;;;;;;4.25;0.90;;;20.20;44.30;;;;;;604595;236;26631;-68
2022/07/06 10:09:03;;;;;;;2.25;0.90;;;20.10;44.00;;;;;;606405;235;26585;-71
2022/07/06 10:11:31;;;;;;;3.47;0.75;;;20.30;43.70;;;;;;607910;235;26664;-72
2022/07/06 10:13:59;;;;;;;4.53;1.27;;;20.30;44.50;;;;;;610202;235;26616;-71
2022/07/06 10:16:27;;;;;;;2.92;1.20;;;20.30;44.20;;;;;;601631;236;26626;-71
2022/07/06 10:18:54;;;;;;;3.30;1.00;;;20.20;44.00;;;;;;603496;238;26590;-71
2022/07/06 10:21:22;;;;;;;5.28;1.85;;;20.10;43.70;;;;;;605524;235;27308;-70
2022/07/06 10:23:50;;;;;;;17.98;3.75;;;20.20;44.60;;;;;;603483;238;26590;-75
2022/07/06 10:26:18;;;;;;;9.25;3.25;;;20.50;45.00;;;;;;605620;236;26635;-70
2022/07/06 10:28:46;;;;;;;16.20;4.87;;;20.50;45.00;;;;;;602151;237;26656;-73
2022/07/06 10:31:15;;;;;;;10.02;3.50;;;20.60;45.10;;;;;;601255;237;26657;-72
2022/07/06 10:33:42;;;;;;;11.43;3.47;;;20.80;45.40;;;;;;603481;238;26816;-72
2022/07/06 10:36:09;;;;;;;8.70;2.75;;;21.00;44.90;;;;;;603333;237;26566;-72
2022/07/06 10:38:37;;;;;;;9.30;2.78;;;21.30;44.90;;;;;;604594;236;27458;-73
2022/07/06 10:41:06;;;;;;;8.07;2.47;;;21.40;43.90;;;;;;604106;232;26606;-73
2022/07/06 10:43:37;;;;;;;7.35;2.25;;;21.30;43.80;;;;;;607286;235;26967;-72
2022/07/06 10:46:06;;;;;;;10.23;2.50;;;21.20;43.10;;;;;;610426;236;26587;-72
2022/07/06 10:48:35;;;;;;;5.90;2.22;;;21.00;43.50;;;;;;603220;235;26829;-70
2022/07/06 10:51:04;;;;;;;4.75;1.85;;;21.00;43.20;;;;;;605154;235;26601;-72
2022/07/06 10:53:33;;;;;;;5.78;1.67;;;21.00;43.90;;;;;;607879;235;26586;-73
2022/07/06 10:55:59;;;;;;;4.35;1.62;;;21.00;43.90;;;;;;604370;236;26581;-71
2022/07/06 10:58:50;;;;;;;5.75;2.10;;;21.20;43.60;;;;;;603554;236;26581;-71
2022/07/06 11:01:16;;;;;;;5.18;1.77;;;21.20;43.60;;;;;;599081;238;26616;-71
2022/07/06 11:03:43;;;;;;;5.55;1.92;;;22.20;42.90;;;;;;604868;236;26579;-71
2022/07/06 11:06:26;;;;;;;4.97;1.60;;;22.40;42.30;;;;;;603387;236;26583;-72
2022/07/06 11:08:58;;;;;;;3.30;1.83;;;22.50;41.40;;;;;;605598;231;26830;-71
2022/07/06 11:11:41;;;;;;;4.80;1.90;;;22.50;41.80;;;;;;604206;235;26619;-70
2022/07/06 11:14:18;;;;;;;6.28;1.70;;;22.40;41.20;;;;;;605866;234;26638;-70
2022/07/06 11:17:03;;;;;;;4.00;1.48;;;22.20;41.70;;;;;;604197;235;26594;-71
2022/07/06 11:19:29;;;;;;;1.77;1.17;;;22.30;41.80;;;;;;604834;235;26657;-71
2022/07/06 11:21:57;;;;;;;2.75;1.33;;;21.70;41.80;;;;;;606754;235;27187;-70
2022/07/06 11:24:26;;;;;;;5.18;1.58;;;21.20;42.80;;;;;;607716;235;26988;-71
2022/07/06 11:26:53;;;;;;;4.00;1.20;;;21.10;43.60;;;;;;603477;236;27179;-71
2022/07/06 11:29:21;;;;;;;4.87;1.40;;;21.10;44.30;;;;;;606607;235;26568;-70
2022/07/06 11:31:50;;;;;;;4.93;1.48;;;21.00;44.10;;;;;;605199;235;26648;-70
2022/07/06 11:34:19;;;;;;;3.72;1.10;;;21.20;44.40;;;;;;604433;236;26589;-69
2022/07/06 11:36:47;;;;;;;6.12;1.42;;;21.20;44.40;;;;;;606279;236;26639;-70
2022/07/06 11:39:13;;;;;;;35.33;6.80;;;21.00;43.90;;;;;;603005;238;26589;-69
2022/07/06 11:41:41;;;;;;;82.40;15.73;;;21.50;43.40;;;;;;603102;238;26597;-68
2022/07/06 11:44:09;;;;;;;120.93;26.08;;;21.30;43.40;;;;;;604507;237;26597;-65
2022/07/06 11:46:36;;;;;;;140.43;29.05;;;21.30;43.40;;;;;;604501;236;26613;-70
2022/07/06 11:49:05;;;;;;;139.02;27.10;;;21.40;43.50;;;;;;602895;236;26884;-69
2022/07/06 11:51:32;;;;;;;124.25;26.62;;;21.40;43.00;;;;;;605096;237;26681;-69
2022/07/06 11:54:00;;;;;;;101.07;22.30;;;21.80;42.50;;;;;;605068;237;26819;-69
2022/07/06 11:56:28;;;;;;;103.90;24.23;;;22.10;41.50;;;;;;605389;236;26614;-69
2022/07/06 11:58:56;;;;;;;53.42;13.43;;;21.80;41.20;;;;;;605318;237;26838;-69
2022/07/06 12:01:23;;;;;;;31.00;7.47;;;22.20;41.40;;;;;;605070;233;26626;-69
2022/07/06 12:03:50;;;;;;;43.53;9.30;;;22.40;41.30;;;;;;605336;237;26589;-70
2022/07/06 12:06:20;;;;;;;44.95;11.88;;;22.50;40.90;;;;;;605041;232;26565;-70
2022/07/06 12:08:47;;;;;;;29.37;7.25;;;21.90;41.70;;;;;;604830;232;26575;-70
2022/07/06 12:11:23;;;;;;;25.58;6.78;;;21.50;42.30;;;;;;604831;237;26614;-70
2022/07/06 12:13:51;;;;;;;14.10;4.65;;;21.50;42.80;;;;;;604185;238;26618;-69
2022/07/06 12:16:19;;;;;;;20.17;5.05;;;21.50;42.90;;;;;;604887;237;26590;-70
2022/07/06 12:18:47;;;;;;;15.75;5.53;;;21.50;42.90;;;;;;605239;237;26562;-69
2022/07/06 12:21:14;;;;;;;9.73;2.90;;;21.30;43.10;;;;;;605217;237;26809;-70
2022/07/06 12:23:42;;;;;;;15.27;3.55;;;21.40;43.20;;;;;;605014;238;26558;-70
2022/07/06 12:26:09;;;;;;;14.73;2.80;;;21.60;42.90;;;;;;604708;237;26858;-70
2022/07/06 12:28:36;;;;;;;3.17;1.42;;;21.50;43.20;;;;;;604564;237;26562;-70
2022/07/06 12:31:04;;;;;;;9.73;2.75;;;22.00;42.20;;;;;;604611;238;26606;-70
2022/07/06 12:33:31;;;;;;;4.18;1.80;;;22.00;42.20;;;;;;604630;237;26634;-70
2022/07/06 12:36:13;;;;;;;5.22;1.55;;;22.50;42.20;;;;;;604605;238;26574;-70
2022/07/06 12:38:44;;;;;;;3.90;1.48;;;23.50;41.20;;;;;;604579;238;26614;-70
2022/07/06 12:41:12;;;;;;;2.78;1.20;;;23.80;40.20;;;;;;604560;237;26619;-70
2022/07/06 12:43:39;;;;;;;2.83;1.42;;;23.80;40.60;;;;;;603014;237;27297;-70
2022/07/06 12:46:18;;;;;;;4.43;1.60;;;23.80;40.90;;;;;;604504;237;26600;-70
2022/07/06 12:48:51;;;;;;;3.33;1.48;;;24.40;39.50;;;;;;604526;238;26582;-70
2022/07/06 12:51:18;;;;;;;4.53;1.20;;;24.30;39.40;;;;;;604577;237;26833;-70
2022/07/06 12:53:45;;;;;;;5.10;1.33;;;24.10;39.90;;;;;;604593;237;26575;-70
2022/07/06 12:56:13;;;;;;;1.83;0.77;;;24.00;40.10;;;;;;604542;237;26832;-70